Allenville, Illinois
Current Conditions -  °F | °C
As of 9:53 PM on Thursday 20 Nov 2014 (Local Time) from KMTO Reporting Station
Clear Clear  
Wind Chill: 12°   Ceiling: Unl
Heat Index: 20°   Visibility: 10mi
Dew Point: 12°   Wind: 6mph
Humidity: 71%   Direction: 290°WNW
Pressure: 30.29"   Gusts: NA
Location:  39.5872°N, 88.5835°W
Report Text: KMTO 210353Z AUTO 29005KT 10SM CLR M07/M11 A3029 RMK AO2 SLP267 T10671111
Loading
Personal Weather Stations






























Interactive Weather Map New forecast layout! Learn more

10-Day Weather Forecast

Advertisements
Track Severe Weather on mobile